SBI9283 USCC-UNNT
Flight info
| Callsign | SBI9283 |
|---|---|
| Flight time | 1h 59m |
| Altitude | 37000 |
| Route | NOMGU2E NOMGU L749 BASAB T762 ABALI L158 BENAK A487 SZ W1 GOLIM GOLIM1M |
| Aircraft | A332/M-V/N |
Departure
| Time | 2026-04-27 16:42 |
|---|---|
| Airport | Kurchatov Chelyabinsk International Airport (USCC) |
Arrival
| Time | 2026-04-27 18:42 |
|---|---|
| Airport | Novosibirsk Tolmachevo Airport (UNNT) |
| Time | Latitude | Longitude | Altitude | Speed | Heading |
|---|---|---|---|---|---|
| 2026-04-27 16:17 | 55.30018 | 61.50962 | 747 ft | 0 kts | 193° |
| 2026-04-27 16:35 | 55.29980 | 61.50924 | 746 ft | 11 kts | 240° |
| 2026-04-27 16:36 | 55.29980 | 61.50835 | 746 ft | 11 kts | 282° |
| 2026-04-27 16:36 | 55.30004 | 61.50647 | 747 ft | 11 kts | 283° |
| 2026-04-27 16:36 | 55.30021 | 61.50515 | 750 ft | 10 kts | 283° |
| 2026-04-27 16:36 | 55.30037 | 61.50397 | 751 ft | 10 kts | 284° |
| 2026-04-27 16:37 | 55.30056 | 61.50271 | 751 ft | 11 kts | 284° |
| 2026-04-27 16:37 | 55.30073 | 61.50149 | 754 ft | 9 kts | 284° |
| 2026-04-27 16:37 | 55.30093 | 61.50043 | 756 ft | 13 kts | 313° |
| 2026-04-27 16:37 | 55.30209 | 61.50050 | 756 ft | 18 kts | 14° |
| 2026-04-27 16:38 | 55.30333 | 61.50100 | 757 ft | 17 kts | 14° |
| 2026-04-27 16:38 | 55.30425 | 61.50037 | 757 ft | 16 kts | 288° |
| 2026-04-27 16:38 | 55.30453 | 61.49841 | 760 ft | 17 kts | 284° |
| 2026-04-27 16:38 | 55.30484 | 61.49617 | 760 ft | 19 kts | 284° |
| 2026-04-27 16:39 | 55.30515 | 61.49395 | 762 ft | 17 kts | 284° |
| 2026-04-27 16:39 | 55.30544 | 61.49189 | 763 ft | 17 kts | 284° |
| 2026-04-27 16:39 | 55.30571 | 61.48985 | 763 ft | 17 kts | 281° |
| 2026-04-27 16:39 | 55.30598 | 61.48777 | 762 ft | 17 kts | 287° |
| 2026-04-27 16:40 | 55.30627 | 61.48562 | 761 ft | 18 kts | 283° |
| 2026-04-27 16:40 | 55.30661 | 61.48341 | 760 ft | 18 kts | 285° |
| 2026-04-27 16:40 | 55.30713 | 61.48162 | 758 ft | 17 kts | 349° |
| 2026-04-27 16:40 | 55.30836 | 61.48228 | 754 ft | 19 kts | 43° |
| 2026-04-27 16:41 | 55.30846 | 61.48429 | 756 ft | 17 kts | 104° |
| 2026-04-27 16:41 | 55.30791 | 61.48806 | 761 ft | 68 kts | 104° |
| 2026-04-27 16:41 | 55.30681 | 61.49596 | 760 ft | 118 kts | 104° |
| 2026-04-27 16:41 | 55.30432 | 61.51344 | 866 ft | 167 kts | 106° |
| 2026-04-27 16:42 | 55.30155 | 61.53419 | 1319 ft | 187 kts | 109° |
| 2026-04-27 16:42 | 55.29858 | 61.55751 | 1919 ft | 208 kts | 104° |
| 2026-04-27 16:42 | 55.29974 | 61.58471 | 2422 ft | 246 kts | 77° |
| 2026-04-27 16:42 | 55.30808 | 61.61280 | 3021 ft | 273 kts | 59° |
| 2026-04-27 16:43 | 55.31995 | 61.63924 | 3749 ft | 287 kts | 52° |
| 2026-04-27 16:43 | 55.33355 | 61.66537 | 4565 ft | 297 kts | 51° |
| 2026-04-27 16:43 | 55.34692 | 61.69271 | 5613 ft | 295 kts | 54° |
| 2026-04-27 16:43 | 55.35909 | 61.72103 | 6581 ft | 296 kts | 58° |
| 2026-04-27 16:44 | 55.37079 | 61.75071 | 7467 ft | 300 kts | 59° |
| 2026-04-27 16:44 | 55.38234 | 61.78104 | 8266 ft | 301 kts | 59° |
| 2026-04-27 16:44 | 55.39373 | 61.81133 | 8893 ft | 302 kts | 59° |
| 2026-04-27 16:44 | 55.40536 | 61.84262 | 9538 ft | 305 kts | 59° |
| 2026-04-27 16:45 | 55.41694 | 61.87403 | 10172 ft | 307 kts | 59° |
| 2026-04-27 16:45 | 55.42842 | 61.90529 | 10795 ft | 310 kts | 58° |
| 2026-04-27 16:45 | 55.44015 | 61.93733 | 11424 ft | 314 kts | 58° |
| 2026-04-27 16:45 | 55.45212 | 61.97010 | 12053 ft | 323 kts | 58° |
| 2026-04-27 16:46 | 55.46424 | 62.00332 | 12669 ft | 332 kts | 58° |
| 2026-04-27 16:46 | 55.47679 | 62.03780 | 13290 ft | 340 kts | 58° |
| 2026-04-27 16:46 | 55.48965 | 62.07317 | 13909 ft | 347 kts | 58° |
| 2026-04-27 16:46 | 55.50277 | 62.10928 | 14536 ft | 354 kts | 58° |
| 2026-04-27 16:47 | 55.51605 | 62.14625 | 15161 ft | 361 kts | 59° |
| 2026-04-27 16:47 | 55.52806 | 62.18467 | 15776 ft | 366 kts | 64° |
| 2026-04-27 16:47 | 55.53855 | 62.22618 | 16406 ft | 371 kts | 69° |
| 2026-04-27 16:47 | 55.54770 | 62.26877 | 17026 ft | 376 kts | 70° |
| 2026-04-27 16:48 | 55.55671 | 62.31220 | 17649 ft | 380 kts | 71° |
| 2026-04-27 16:48 | 55.56569 | 62.35571 | 18265 ft | 384 kts | 70° |
| 2026-04-27 16:48 | 55.57488 | 62.40012 | 18897 ft | 387 kts | 70° |
| 2026-04-27 16:49 | 55.59356 | 62.49014 | 19920 ft | 399 kts | 70° |
| 2026-04-27 16:49 | 55.60313 | 62.53631 | 20410 ft | 405 kts | 70° |
| 2026-04-27 16:49 | 55.61300 | 62.58405 | 20796 ft | 415 kts | 70° |
| 2026-04-27 16:49 | 55.62294 | 62.63218 | 21178 ft | 423 kts | 70° |
| 2026-04-27 16:50 | 55.63305 | 62.68133 | 21563 ft | 431 kts | 71° |
| 2026-04-27 16:50 | 55.64321 | 62.73093 | 21946 ft | 438 kts | 70° |
| 2026-04-27 16:50 | 55.65364 | 62.78186 | 22332 ft | 445 kts | 71° |
| 2026-04-27 16:50 | 55.66333 | 62.83363 | 22718 ft | 451 kts | 73° |
| 2026-04-27 16:51 | 55.67145 | 62.88777 | 23110 ft | 456 kts | 77° |
| 2026-04-27 16:51 | 55.67804 | 62.94247 | 23497 ft | 462 kts | 78° |
| 2026-04-27 16:51 | 55.68444 | 62.99881 | 23892 ft | 466 kts | 79° |
| 2026-04-27 16:51 | 55.69073 | 63.05491 | 24282 ft | 471 kts | 79° |
| 2026-04-27 16:52 | 55.69709 | 63.11174 | 24675 ft | 475 kts | 79° |
| 2026-04-27 16:52 | 55.70356 | 63.16957 | 25074 ft | 478 kts | 79° |
| 2026-04-27 16:52 | 55.71001 | 63.22728 | 25472 ft | 481 kts | 79° |
| 2026-04-27 16:52 | 55.71644 | 63.28494 | 25870 ft | 484 kts | 78° |
| 2026-04-27 16:53 | 55.72298 | 63.34386 | 26276 ft | 486 kts | 78° |
| 2026-04-27 16:53 | 55.72946 | 63.40243 | 26678 ft | 487 kts | 78° |
| 2026-04-27 16:53 | 55.73593 | 63.46125 | 27083 ft | 488 kts | 78° |
| 2026-04-27 16:53 | 55.74232 | 63.51952 | 27483 ft | 489 kts | 78° |
| 2026-04-27 16:54 | 55.74876 | 63.57861 | 27890 ft | 489 kts | 78° |
| 2026-04-27 16:54 | 55.75518 | 63.63781 | 28299 ft | 489 kts | 78° |
| 2026-04-27 16:54 | 55.76129 | 63.69701 | 28705 ft | 489 kts | 81° |
| 2026-04-27 16:54 | 55.76539 | 63.75655 | 29118 ft | 488 kts | 85° |
| 2026-04-27 16:55 | 55.76710 | 63.81623 | 29526 ft | 486 kts | 89° |
| 2026-04-27 16:55 | 55.76639 | 63.87573 | 29931 ft | 485 kts | 93° |
| 2026-04-27 16:55 | 55.76429 | 63.93548 | 30333 ft | 483 kts | 94° |
| 2026-04-27 16:55 | 55.76198 | 63.99421 | 30715 ft | 481 kts | 94° |
| 2026-04-27 16:56 | 55.75963 | 64.05294 | 31078 ft | 479 kts | 94° |
| 2026-04-27 16:56 | 55.75729 | 64.11199 | 31454 ft | 477 kts | 94° |
| 2026-04-27 16:56 | 55.75500 | 64.17014 | 31833 ft | 475 kts | 93° |
| 2026-04-27 16:56 | 55.75272 | 64.22803 | 32211 ft | 473 kts | 93° |
| 2026-04-27 16:57 | 55.75042 | 64.28627 | 32595 ft | 471 kts | 93° |
| 2026-04-27 16:57 | 55.74813 | 64.34354 | 32972 ft | 469 kts | 93° |
| 2026-04-27 16:57 | 55.74581 | 64.40107 | 33354 ft | 466 kts | 93° |
| 2026-04-27 16:57 | 55.74350 | 64.45747 | 33731 ft | 464 kts | 93° |
| 2026-04-27 16:58 | 55.74112 | 64.51449 | 34109 ft | 462 kts | 93° |
| 2026-04-27 16:58 | 55.73875 | 64.57104 | 34493 ft | 459 kts | 93° |
| 2026-04-27 16:58 | 55.73643 | 64.62640 | 34831 ft | 456 kts | 93° |
| 2026-04-27 16:58 | 55.73409 | 64.68204 | 35173 ft | 453 kts | 94° |
| 2026-04-27 16:59 | 55.73173 | 64.73727 | 35510 ft | 450 kts | 94° |
| 2026-04-27 16:59 | 55.72934 | 64.79236 | 35845 ft | 446 kts | 94° |
| 2026-04-27 16:59 | 55.72695 | 64.84703 | 36177 ft | 443 kts | 94° |
| 2026-04-27 16:59 | 55.72458 | 64.90042 | 36527 ft | 439 kts | 94° |
| 2026-04-27 17:00 | 55.72059 | 64.98926 | 37133 ft | 435 kts | 94° |
| 2026-04-27 17:00 | 55.71731 | 65.06090 | 37156 ft | 442 kts | 94° |
| 2026-04-27 17:01 | 55.71223 | 65.17017 | 37157 ft | 452 kts | 94° |
| 2026-04-27 17:01 | 55.70691 | 65.28230 | 37162 ft | 462 kts | 94° |
| 2026-04-27 17:02 | 55.70139 | 65.39641 | 37167 ft | 471 kts | 94° |
| 2026-04-27 17:02 | 55.69569 | 65.51236 | 37170 ft | 479 kts | 94° |
| 2026-04-27 17:03 | 55.68978 | 65.63023 | 37178 ft | 485 kts | 94° |
| 2026-04-27 17:03 | 55.68369 | 65.74949 | 37170 ft | 491 kts | 95° |
| 2026-04-27 17:04 | 55.67742 | 65.86968 | 37170 ft | 494 kts | 95° |
| 2026-04-27 17:04 | 55.67102 | 65.99004 | 37178 ft | 493 kts | 95° |
| 2026-04-27 17:05 | 55.66448 | 66.11059 | 37185 ft | 494 kts | 95° |
| 2026-04-27 17:05 | 55.65780 | 66.23138 | 37183 ft | 494 kts | 95° |
| 2026-04-27 17:06 | 55.65104 | 66.35174 | 37185 ft | 494 kts | 95° |
| 2026-04-27 17:06 | 55.64423 | 66.47226 | 37189 ft | 495 kts | 94° |
| 2026-04-27 17:07 | 55.63729 | 66.59260 | 37191 ft | 495 kts | 94° |
| 2026-04-27 17:07 | 55.63020 | 66.71352 | 37192 ft | 495 kts | 95° |
| 2026-04-27 17:08 | 55.62301 | 66.83401 | 37193 ft | 495 kts | 95° |
| 2026-04-27 17:08 | 55.61566 | 66.95492 | 37205 ft | 495 kts | 95° |
| 2026-04-27 17:09 | 55.60822 | 67.07523 | 37206 ft | 495 kts | 95° |
| 2026-04-27 17:09 | 55.60064 | 67.19600 | 37202 ft | 496 kts | 95° |
| 2026-04-27 17:10 | 55.59294 | 67.31639 | 37203 ft | 496 kts | 95° |
| 2026-04-27 17:10 | 55.58510 | 67.43716 | 37207 ft | 496 kts | 95° |
| 2026-04-27 17:11 | 55.57716 | 67.55773 | 37210 ft | 496 kts | 95° |
| 2026-04-27 17:11 | 55.56508 | 67.73786 | 37211 ft | 496 kts | 96° |
| 2026-04-27 17:12 | 55.55262 | 67.91871 | 37214 ft | 496 kts | 96° |
| 2026-04-27 17:13 | 55.54680 | 68.03956 | 37210 ft | 495 kts | 89° |
| 2026-04-27 17:13 | 55.54784 | 68.16022 | 37210 ft | 495 kts | 85° |
| 2026-04-27 17:14 | 55.55035 | 68.28153 | 37214 ft | 495 kts | 85° |
| 2026-04-27 17:14 | 55.55264 | 68.40241 | 37205 ft | 496 kts | 85° |
| 2026-04-27 17:15 | 55.55473 | 68.52397 | 37205 ft | 496 kts | 85° |
| 2026-04-27 17:15 | 55.55665 | 68.64501 | 37206 ft | 496 kts | 85° |
| 2026-04-27 17:16 | 55.55845 | 68.76636 | 37205 ft | 497 kts | 86° |
| 2026-04-27 17:16 | 55.56012 | 68.88753 | 37209 ft | 497 kts | 86° |
| 2026-04-27 17:17 | 55.56168 | 69.00978 | 37205 ft | 498 kts | 86° |
| 2026-04-27 17:17 | 55.56310 | 69.13161 | 37218 ft | 499 kts | 86° |
| 2026-04-27 17:18 | 55.56765 | 69.31356 | 37223 ft | 497 kts | 83° |
| 2026-04-27 17:18 | 55.57172 | 69.43552 | 37229 ft | 498 kts | 83° |
| 2026-04-27 17:19 | 55.57559 | 69.55718 | 37221 ft | 498 kts | 83° |
| 2026-04-27 17:19 | 55.57931 | 69.67883 | 37221 ft | 498 kts | 84° |
| 2026-04-27 17:20 | 55.58286 | 69.80030 | 37220 ft | 498 kts | 84° |
| 2026-04-27 17:20 | 55.58629 | 69.92241 | 37226 ft | 499 kts | 84° |
| 2026-04-27 17:21 | 55.58961 | 70.04429 | 37230 ft | 499 kts | 84° |
| 2026-04-27 17:21 | 55.59283 | 70.16630 | 37230 ft | 499 kts | 84° |
| 2026-04-27 17:22 | 55.59590 | 70.28828 | 37234 ft | 499 kts | 84° |
| 2026-04-27 17:22 | 55.59889 | 70.41057 | 37242 ft | 500 kts | 84° |
| 2026-04-27 17:23 | 55.60173 | 70.53249 | 37241 ft | 500 kts | 84° |
| 2026-04-27 17:23 | 55.60445 | 70.65507 | 37240 ft | 500 kts | 85° |
| 2026-04-27 17:24 | 55.60704 | 70.77719 | 37243 ft | 501 kts | 84° |
| 2026-04-27 17:24 | 55.60949 | 70.89916 | 37237 ft | 500 kts | 84° |
| 2026-04-27 17:25 | 55.61184 | 71.02161 | 37252 ft | 501 kts | 84° |
| 2026-04-27 17:25 | 55.61407 | 71.14484 | 37234 ft | 501 kts | 84° |
| 2026-04-27 17:26 | 55.61620 | 71.26668 | 37241 ft | 501 kts | 84° |
| 2026-04-27 17:26 | 55.61833 | 71.38959 | 37243 ft | 501 kts | 84° |
| 2026-04-27 17:27 | 55.62031 | 71.51263 | 37243 ft | 501 kts | 84° |
| 2026-04-27 17:27 | 55.62215 | 71.63601 | 37256 ft | 502 kts | 84° |
| 2026-04-27 17:28 | 55.62383 | 71.75855 | 37243 ft | 502 kts | 85° |
| 2026-04-27 17:29 | 55.62617 | 71.94304 | 37245 ft | 502 kts | 85° |
| 2026-04-27 17:29 | 55.62756 | 72.06609 | 37249 ft | 502 kts | 85° |
| 2026-04-27 17:29 | 55.62820 | 72.12771 | 37371 ft | 501 kts | 85° |
| 2026-04-27 17:30 | 55.62882 | 72.18910 | 37308 ft | 501 kts | 85° |
| 2026-04-27 17:30 | 55.63047 | 72.37233 | 37259 ft | 501 kts | 85° |
| 2026-04-27 17:31 | 55.63147 | 72.49532 | 37259 ft | 502 kts | 85° |
| 2026-04-27 17:31 | 55.63230 | 72.61842 | 37259 ft | 502 kts | 85° |
| 2026-04-27 17:32 | 55.63331 | 72.80330 | 37265 ft | 503 kts | 86° |
| 2026-04-27 17:33 | 55.63380 | 72.92639 | 37260 ft | 503 kts | 86° |
| 2026-04-27 17:33 | 55.63419 | 73.04951 | 37264 ft | 504 kts | 86° |
| 2026-04-27 17:34 | 55.63060 | 73.17278 | 37260 ft | 506 kts | 92° |
| 2026-04-27 17:34 | 55.62301 | 73.29596 | 37267 ft | 506 kts | 93° |
| 2026-04-27 17:35 | 55.61518 | 73.41908 | 37254 ft | 505 kts | 93° |
| 2026-04-27 17:35 | 55.60737 | 73.54185 | 37261 ft | 506 kts | 93° |
| 2026-04-27 17:36 | 55.59996 | 73.66520 | 37254 ft | 505 kts | 91° |
| 2026-04-27 17:36 | 55.59560 | 73.78851 | 37252 ft | 505 kts | 90° |
| 2026-04-27 17:37 | 55.59139 | 73.91183 | 37250 ft | 506 kts | 90° |
| 2026-04-27 17:37 | 55.58696 | 74.03517 | 37244 ft | 506 kts | 91° |
| 2026-04-27 17:38 | 55.58231 | 74.15897 | 37246 ft | 507 kts | 91° |
| 2026-04-27 17:38 | 55.57762 | 74.28290 | 37258 ft | 507 kts | 91° |
| 2026-04-27 17:39 | 55.57294 | 74.40605 | 37243 ft | 507 kts | 91° |
| 2026-04-27 17:39 | 55.56810 | 74.52955 | 37246 ft | 506 kts | 91° |
| 2026-04-27 17:40 | 55.56311 | 74.65288 | 37251 ft | 506 kts | 92° |
| 2026-04-27 17:40 | 55.55798 | 74.77657 | 37247 ft | 507 kts | 92° |
| 2026-04-27 17:41 | 55.55270 | 74.90028 | 37254 ft | 506 kts | 92° |
| 2026-04-27 17:41 | 55.54730 | 75.02329 | 37258 ft | 506 kts | 92° |
| 2026-04-27 17:42 | 55.54181 | 75.14671 | 37257 ft | 506 kts | 92° |
| 2026-04-27 17:42 | 55.53627 | 75.27010 | 37254 ft | 507 kts | 92° |
| 2026-04-27 17:43 | 55.53056 | 75.39366 | 37261 ft | 508 kts | 92° |
| 2026-04-27 17:43 | 55.52468 | 75.51745 | 37256 ft | 508 kts | 92° |
| 2026-04-27 17:44 | 55.51870 | 75.64116 | 37264 ft | 508 kts | 92° |
| 2026-04-27 17:44 | 55.51256 | 75.76498 | 37266 ft | 508 kts | 94° |
| 2026-04-27 17:45 | 55.50632 | 75.88818 | 37265 ft | 509 kts | 94° |
| 2026-04-27 17:45 | 55.49990 | 76.01189 | 37276 ft | 509 kts | 94° |
| 2026-04-27 17:46 | 55.49335 | 76.13599 | 37265 ft | 509 kts | 94° |
| 2026-04-27 17:46 | 55.48676 | 76.25881 | 37266 ft | 509 kts | 94° |
| 2026-04-27 17:47 | 55.47996 | 76.38272 | 37257 ft | 509 kts | 94° |
| 2026-04-27 17:47 | 55.47298 | 76.50658 | 37264 ft | 510 kts | 94° |
| 2026-04-27 17:48 | 55.46586 | 76.63029 | 37265 ft | 510 kts | 94° |
| 2026-04-27 17:48 | 55.45865 | 76.75413 | 37259 ft | 511 kts | 95° |
| 2026-04-27 17:49 | 55.45126 | 76.87849 | 37266 ft | 511 kts | 95° |
| 2026-04-27 17:49 | 55.44378 | 77.00240 | 37264 ft | 511 kts | 95° |
| 2026-04-27 17:50 | 55.43619 | 77.12598 | 37270 ft | 512 kts | 95° |
| 2026-04-27 17:50 | 55.42445 | 77.31270 | 37270 ft | 512 kts | 95° |
| 2026-04-27 17:51 | 55.41649 | 77.43672 | 37264 ft | 512 kts | 95° |
| 2026-04-27 17:51 | 55.40839 | 77.56084 | 37274 ft | 513 kts | 95° |
| 2026-04-27 17:52 | 55.40019 | 77.68468 | 37266 ft | 512 kts | 96° |
| 2026-04-27 17:52 | 55.39190 | 77.80833 | 37261 ft | 512 kts | 96° |
| 2026-04-27 17:53 | 55.38344 | 77.93243 | 37270 ft | 512 kts | 97° |
| 2026-04-27 17:53 | 55.37481 | 78.05646 | 37275 ft | 512 kts | 97° |
| 2026-04-27 17:54 | 55.36610 | 78.17969 | 37267 ft | 513 kts | 97° |
| 2026-04-27 17:54 | 55.35721 | 78.30340 | 37269 ft | 514 kts | 97° |
| 2026-04-27 17:55 | 55.34765 | 78.42755 | 37258 ft | 513 kts | 97° |
| 2026-04-27 17:55 | 55.33787 | 78.54899 | 37262 ft | 496 kts | 97° |
| 2026-04-27 17:56 | 55.32818 | 78.66785 | 37253 ft | 492 kts | 98° |
| 2026-04-27 17:56 | 55.32335 | 78.72683 | 37115 ft | 488 kts | 98° |
| 2026-04-27 17:56 | 55.31857 | 78.78474 | 36669 ft | 486 kts | 98° |
| 2026-04-27 17:57 | 55.31372 | 78.84304 | 36006 ft | 489 kts | 98° |
| 2026-04-27 17:57 | 55.30879 | 78.90190 | 35321 ft | 492 kts | 98° |
| 2026-04-27 17:57 | 55.30379 | 78.96130 | 34669 ft | 493 kts | 98° |
| 2026-04-27 17:57 | 55.29882 | 79.02026 | 34053 ft | 494 kts | 97° |
| 2026-04-27 17:58 | 55.29372 | 79.08002 | 33383 ft | 496 kts | 97° |
| 2026-04-27 17:58 | 55.28864 | 79.13945 | 32738 ft | 498 kts | 97° |
| 2026-04-27 17:58 | 55.28347 | 79.19936 | 32088 ft | 501 kts | 97° |
| 2026-04-27 17:58 | 55.27822 | 79.25979 | 31432 ft | 504 kts | 96° |
| 2026-04-27 17:59 | 55.27303 | 79.31951 | 30786 ft | 506 kts | 96° |
| 2026-04-27 17:59 | 55.26768 | 79.38060 | 30140 ft | 507 kts | 96° |
| 2026-04-27 17:59 | 55.26241 | 79.44088 | 29580 ft | 505 kts | 96° |
| 2026-04-27 17:59 | 55.25706 | 79.50170 | 28971 ft | 503 kts | 96° |
| 2026-04-27 18:00 | 55.25173 | 79.56182 | 28242 ft | 503 kts | 96° |
| 2026-04-27 18:00 | 55.24865 | 79.59628 | 27800 ft | 504 kts | 96° |
| 2026-04-27 18:01 | 55.24575 | 79.62873 | 27370 ft | 505 kts | 96° |
| 2026-04-27 18:01 | 55.24036 | 79.68881 | 26572 ft | 506 kts | 97° |
| 2026-04-27 18:02 | 55.23484 | 79.74989 | 25742 ft | 507 kts | 98° |
| 2026-04-27 18:02 | 55.22933 | 79.81036 | 24913 ft | 506 kts | 98° |
| 2026-04-27 18:02 | 55.22382 | 79.87045 | 24000 ft | 506 kts | 98° |
| 2026-04-27 18:02 | 55.21823 | 79.93091 | 23010 ft | 506 kts | 98° |
| 2026-04-27 18:03 | 55.21257 | 79.99171 | 21978 ft | 505 kts | 98° |
| 2026-04-27 18:03 | 55.20700 | 80.05139 | 20935 ft | 505 kts | 98° |
| 2026-04-27 18:03 | 55.20136 | 80.11131 | 20107 ft | 498 kts | 98° |
| 2026-04-27 18:03 | 55.19577 | 80.17050 | 19802 ft | 481 kts | 98° |
| 2026-04-27 18:04 | 55.19038 | 80.22716 | 19532 ft | 465 kts | 98° |
| 2026-04-27 18:04 | 55.18520 | 80.28131 | 19285 ft | 453 kts | 98° |
| 2026-04-27 18:04 | 55.18002 | 80.33535 | 19021 ft | 451 kts | 98° |
| 2026-04-27 18:04 | 55.17485 | 80.38895 | 18747 ft | 448 kts | 98° |
| 2026-04-27 18:05 | 55.16965 | 80.44272 | 18498 ft | 446 kts | 98° |
| 2026-04-27 18:05 | 55.16450 | 80.49552 | 18220 ft | 444 kts | 98° |
| 2026-04-27 18:05 | 55.15929 | 80.54887 | 17962 ft | 442 kts | 99° |
| 2026-04-27 18:05 | 55.15412 | 80.60158 | 17697 ft | 439 kts | 99° |
| 2026-04-27 18:06 | 55.14901 | 80.65321 | 17432 ft | 438 kts | 99° |
| 2026-04-27 18:06 | 55.14380 | 80.70576 | 17174 ft | 436 kts | 99° |
| 2026-04-27 18:06 | 55.13859 | 80.75809 | 16917 ft | 434 kts | 100° |
| 2026-04-27 18:06 | 55.13342 | 80.80956 | 16657 ft | 432 kts | 99° |
| 2026-04-27 18:07 | 55.12825 | 80.86086 | 16401 ft | 430 kts | 99° |
| 2026-04-27 18:07 | 55.12302 | 80.91202 | 16125 ft | 427 kts | 101° |
| 2026-04-27 18:07 | 55.11458 | 80.96079 | 15867 ft | 424 kts | 114° |
| 2026-04-27 18:07 | 55.10056 | 81.00574 | 15608 ft | 420 kts | 126° |
| 2026-04-27 18:08 | 55.08276 | 81.04650 | 15367 ft | 427 kts | 130° |
| 2026-04-27 18:08 | 55.06414 | 81.08659 | 15099 ft | 427 kts | 131° |
| 2026-04-27 18:08 | 55.04552 | 81.12640 | 14843 ft | 425 kts | 130° |
| 2026-04-27 18:08 | 55.02689 | 81.16644 | 14583 ft | 423 kts | 130° |
| 2026-04-27 18:09 | 55.00853 | 81.20607 | 14327 ft | 422 kts | 130° |
| 2026-04-27 18:09 | 54.99033 | 81.24549 | 14063 ft | 420 kts | 130° |
| 2026-04-27 18:09 | 54.97213 | 81.28494 | 13800 ft | 418 kts | 130° |
| 2026-04-27 18:09 | 54.95408 | 81.32407 | 13542 ft | 416 kts | 130° |
| 2026-04-27 18:10 | 54.93607 | 81.36308 | 13285 ft | 414 kts | 130° |
| 2026-04-27 18:10 | 54.91813 | 81.40191 | 13027 ft | 411 kts | 130° |
| 2026-04-27 18:10 | 54.90013 | 81.44078 | 12768 ft | 409 kts | 130° |
| 2026-04-27 18:10 | 54.88244 | 81.47877 | 12509 ft | 408 kts | 130° |
| 2026-04-27 18:11 | 54.86469 | 81.51671 | 12251 ft | 406 kts | 130° |
| 2026-04-27 18:11 | 54.84685 | 81.55482 | 11988 ft | 404 kts | 129° |
| 2026-04-27 18:11 | 54.82933 | 81.59232 | 11735 ft | 403 kts | 129° |
| 2026-04-27 18:11 | 54.81179 | 81.62986 | 11480 ft | 401 kts | 129° |
| 2026-04-27 18:12 | 54.79423 | 81.66747 | 11222 ft | 400 kts | 130° |
| 2026-04-27 18:12 | 54.77692 | 81.70464 | 10970 ft | 398 kts | 130° |
| 2026-04-27 18:12 | 54.75961 | 81.74171 | 10709 ft | 396 kts | 130° |
| 2026-04-27 18:12 | 54.74250 | 81.77827 | 10455 ft | 395 kts | 130° |
| 2026-04-27 18:13 | 54.72528 | 81.81493 | 10203 ft | 392 kts | 130° |
| 2026-04-27 18:13 | 54.70803 | 81.85162 | 10072 ft | 391 kts | 130° |
| 2026-04-27 18:13 | 54.69094 | 81.88788 | 9945 ft | 391 kts | 130° |
| 2026-04-27 18:13 | 54.67382 | 81.92414 | 9823 ft | 390 kts | 130° |
| 2026-04-27 18:14 | 54.65664 | 81.96048 | 9692 ft | 389 kts | 130° |
| 2026-04-27 18:14 | 54.63968 | 81.99630 | 9571 ft | 388 kts | 130° |
| 2026-04-27 18:14 | 54.62269 | 82.03215 | 9442 ft | 388 kts | 130° |
| 2026-04-27 18:14 | 54.60572 | 82.06790 | 9316 ft | 387 kts | 130° |
| 2026-04-27 18:15 | 54.58861 | 82.10389 | 9190 ft | 386 kts | 130° |
| 2026-04-27 18:15 | 54.57159 | 82.13963 | 9064 ft | 385 kts | 130° |
| 2026-04-27 18:15 | 54.55479 | 82.17488 | 8937 ft | 384 kts | 129° |
| 2026-04-27 18:15 | 54.54012 | 82.21276 | 8754 ft | 377 kts | 113° |
| 2026-04-27 18:16 | 54.53406 | 82.25499 | 8634 ft | 358 kts | 95° |
| 2026-04-27 18:16 | 54.53201 | 82.29677 | 8504 ft | 343 kts | 93° |
| 2026-04-27 18:16 | 54.53035 | 82.33669 | 8375 ft | 328 kts | 93° |
| 2026-04-27 18:16 | 54.52860 | 82.37524 | 8241 ft | 315 kts | 93° |
| 2026-04-27 18:17 | 54.52677 | 82.41164 | 8111 ft | 303 kts | 93° |
| 2026-04-27 18:17 | 54.52488 | 82.44722 | 7977 ft | 291 kts | 93° |
| 2026-04-27 18:17 | 54.52305 | 82.48085 | 7846 ft | 280 kts | 93° |
| 2026-04-27 18:17 | 54.52325 | 82.51379 | 7689 ft | 267 kts | 72° |
| 2026-04-27 18:18 | 54.53129 | 82.54113 | 7551 ft | 254 kts | 44° |
| 2026-04-27 18:18 | 54.54502 | 82.55893 | 7405 ft | 247 kts | 19° |
| 2026-04-27 18:18 | 54.56129 | 82.56704 | 7274 ft | 245 kts | 9° |
| 2026-04-27 18:18 | 54.57798 | 82.57340 | 7270 ft | 245 kts | 8° |
| 2026-04-27 18:19 | 54.59459 | 82.57987 | 7151 ft | 246 kts | 9° |
| 2026-04-27 18:19 | 54.61120 | 82.58659 | 6908 ft | 252 kts | 9° |
| 2026-04-27 18:19 | 54.62839 | 82.59373 | 6631 ft | 253 kts | 10° |
| 2026-04-27 18:19 | 54.64542 | 82.60091 | 6372 ft | 252 kts | 10° |
| 2026-04-27 18:20 | 54.66219 | 82.60802 | 6135 ft | 250 kts | 10° |
| 2026-04-27 18:20 | 54.67904 | 82.61519 | 5898 ft | 249 kts | 10° |
| 2026-04-27 18:20 | 54.69585 | 82.62233 | 5669 ft | 248 kts | 10° |
| 2026-04-27 18:20 | 54.71265 | 82.62948 | 5433 ft | 247 kts | 10° |
| 2026-04-27 18:21 | 54.72916 | 82.63650 | 5278 ft | 246 kts | 11° |
| 2026-04-27 18:21 | 54.74588 | 82.64355 | 5243 ft | 247 kts | 8° |
| 2026-04-27 18:21 | 54.76262 | 82.64761 | 5013 ft | 243 kts | 1° |
| 2026-04-27 18:21 | 54.77947 | 82.64918 | 4664 ft | 242 kts | 360° |
| 2026-04-27 18:22 | 54.79610 | 82.65036 | 4316 ft | 241 kts | 1° |
| 2026-04-27 18:22 | 54.81280 | 82.65166 | 3976 ft | 240 kts | 1° |
| 2026-04-27 18:22 | 54.82946 | 82.65299 | 3637 ft | 239 kts | 1° |
| 2026-04-27 18:22 | 54.84596 | 82.65424 | 3348 ft | 236 kts | 359° |
| 2026-04-27 18:23 | 54.86206 | 82.65226 | 3090 ft | 230 kts | 350° |
| 2026-04-27 18:23 | 54.87784 | 82.64771 | 2873 ft | 224 kts | 349° |
| 2026-04-27 18:23 | 54.89272 | 82.64301 | 2729 ft | 216 kts | 348° |
| 2026-04-27 18:23 | 54.90705 | 82.63816 | 2585 ft | 201 kts | 348° |
| 2026-04-27 18:24 | 54.92034 | 82.63384 | 2392 ft | 184 kts | 348° |
| 2026-04-27 18:24 | 54.93241 | 82.63010 | 2151 ft | 173 kts | 348° |
| 2026-04-27 18:24 | 54.94388 | 82.62659 | 1888 ft | 163 kts | 348° |
| 2026-04-27 18:24 | 54.95479 | 82.62328 | 1670 ft | 151 kts | 348° |
| 2026-04-27 18:25 | 54.96464 | 82.62028 | 1448 ft | 138 kts | 348° |
| 2026-04-27 18:25 | 54.97385 | 82.61745 | 1227 ft | 134 kts | 348° |
| 2026-04-27 18:25 | 54.98315 | 82.61458 | 1022 ft | 136 kts | 348° |
| 2026-04-27 18:25 | 54.99261 | 82.61168 | 956 ft | 145 kts | 348° |
| 2026-04-27 18:26 | 55.00343 | 82.60838 | 776 ft | 161 kts | 349° |
| 2026-04-27 18:26 | 55.01417 | 82.60512 | 469 ft | 150 kts | 348° |
| 2026-04-27 18:26 | 55.02396 | 82.60217 | 404 ft | 137 kts | 349° |
| 2026-04-27 18:26 | 55.03435 | 82.59919 | 727 ft | 164 kts | 349° |
| 2026-04-27 18:27 | 55.04657 | 82.59553 | 1151 ft | 194 kts | 349° |
| 2026-04-27 18:27 | 55.06099 | 82.59112 | 1493 ft | 230 kts | 349° |
| 2026-04-27 18:27 | 55.07794 | 82.58590 | 1855 ft | 269 kts | 349° |
| 2026-04-27 18:27 | 55.09731 | 82.57845 | 2242 ft | 303 kts | 339° |
| 2026-04-27 18:28 | 55.11545 | 82.55776 | 2609 ft | 309 kts | 315° |
| 2026-04-27 18:28 | 55.12690 | 82.52880 | 2989 ft | 276 kts | 294° |
| 2026-04-27 18:28 | 55.13121 | 82.49830 | 3355 ft | 245 kts | 275° |
| 2026-04-27 18:28 | 55.12978 | 82.46949 | 3749 ft | 247 kts | 258° |
| 2026-04-27 18:29 | 55.12262 | 82.44031 | 3965 ft | 287 kts | 239° |
| 2026-04-27 18:29 | 55.10735 | 82.41347 | 3963 ft | 339 kts | 215° |
| 2026-04-27 18:29 | 55.08598 | 82.39898 | 3961 ft | 328 kts | 194° |
| 2026-04-27 18:29 | 55.06429 | 82.39202 | 3969 ft | 308 kts | 193° |
| 2026-04-27 18:30 | 55.04366 | 82.38536 | 3967 ft | 289 kts | 193° |
| 2026-04-27 18:30 | 55.02469 | 82.37907 | 3966 ft | 272 kts | 194° |
| 2026-04-27 18:30 | 55.00622 | 82.37282 | 3964 ft | 268 kts | 194° |
| 2026-04-27 18:30 | 54.98819 | 82.36659 | 3971 ft | 268 kts | 194° |
| 2026-04-27 18:31 | 54.96991 | 82.36023 | 3768 ft | 267 kts | 194° |
| 2026-04-27 18:31 | 54.95178 | 82.35392 | 3506 ft | 265 kts | 194° |
| 2026-04-27 18:31 | 54.93377 | 82.34764 | 3211 ft | 263 kts | 193° |
| 2026-04-27 18:31 | 54.91573 | 82.34126 | 2822 ft | 262 kts | 193° |
| 2026-04-27 18:32 | 54.89829 | 82.33513 | 2786 ft | 248 kts | 193° |
| 2026-04-27 18:32 | 54.88189 | 82.32943 | 2760 ft | 242 kts | 193° |
| 2026-04-27 18:32 | 54.86539 | 82.32372 | 2729 ft | 242 kts | 193° |
| 2026-04-27 18:32 | 54.84890 | 82.31805 | 2702 ft | 243 kts | 191° |
| 2026-04-27 18:33 | 54.83212 | 82.31891 | 2607 ft | 244 kts | 159° |
| 2026-04-27 18:33 | 54.81909 | 82.33685 | 2607 ft | 243 kts | 118° |
| 2026-04-27 18:33 | 54.81320 | 82.36417 | 2627 ft | 243 kts | 103° |
| 2026-04-27 18:33 | 54.80877 | 82.39214 | 2736 ft | 244 kts | 104° |
| 2026-04-27 18:34 | 54.80379 | 82.42039 | 2968 ft | 246 kts | 106° |
| 2026-04-27 18:34 | 54.79820 | 82.44849 | 2981 ft | 246 kts | 108° |
| 2026-04-27 18:34 | 54.79229 | 82.47605 | 2946 ft | 244 kts | 109° |
| 2026-04-27 18:34 | 54.78608 | 82.50397 | 2951 ft | 253 kts | 109° |
| 2026-04-27 18:35 | 54.77964 | 82.53249 | 3092 ft | 256 kts | 109° |
| 2026-04-27 18:35 | 54.77311 | 82.56120 | 3458 ft | 258 kts | 109° |
| 2026-04-27 18:35 | 54.76657 | 82.58994 | 3837 ft | 260 kts | 108° |
| 2026-04-27 18:35 | 54.76305 | 82.62020 | 3979 ft | 256 kts | 81° |
| 2026-04-27 18:36 | 54.76951 | 82.64771 | 3983 ft | 246 kts | 43° |
| 2026-04-27 18:36 | 54.78376 | 82.66204 | 3993 ft | 238 kts | 7° |
| 2026-04-27 18:36 | 54.80009 | 82.66087 | 3994 ft | 237 kts | 351° |
| 2026-04-27 18:36 | 54.81629 | 82.65742 | 3936 ft | 238 kts | 353° |
| 2026-04-27 18:37 | 54.83277 | 82.65578 | 3809 ft | 232 kts | 357° |
| 2026-04-27 18:37 | 54.84823 | 82.65543 | 3670 ft | 213 kts | 356° |
| 2026-04-27 18:37 | 54.86227 | 82.65281 | 3520 ft | 194 kts | 349° |
| 2026-04-27 18:37 | 54.87494 | 82.64880 | 3420 ft | 174 kts | 348° |
| 2026-04-27 18:38 | 54.88648 | 82.64506 | 3234 ft | 165 kts | 348° |
| 2026-04-27 18:38 | 54.89776 | 82.64143 | 3102 ft | 164 kts | 348° |
| 2026-04-27 18:38 | 54.90889 | 82.63792 | 2922 ft | 165 kts | 348° |
| 2026-04-27 18:38 | 54.92024 | 82.63439 | 2724 ft | 164 kts | 348° |
| 2026-04-27 18:39 | 54.93128 | 82.63100 | 2461 ft | 158 kts | 348° |
| 2026-04-27 18:39 | 54.94165 | 82.62784 | 2124 ft | 151 kts | 348° |
| 2026-04-27 18:39 | 54.95199 | 82.62456 | 1684 ft | 150 kts | 347° |
| 2026-04-27 18:39 | 54.96170 | 82.62127 | 1490 ft | 133 kts | 347° |
| 2026-04-27 18:40 | 54.97064 | 82.61840 | 1348 ft | 129 kts | 348° |
| 2026-04-27 18:40 | 54.97942 | 82.61569 | 1165 ft | 129 kts | 348° |
| 2026-04-27 18:40 | 54.98822 | 82.61301 | 986 ft | 130 kts | 348° |
| 2026-04-27 18:40 | 54.99723 | 82.61025 | 805 ft | 131 kts | 348° |
| 2026-04-27 18:41 | 55.00619 | 82.60751 | 627 ft | 131 kts | 348° |
| 2026-04-27 18:41 | 55.01514 | 82.60474 | 446 ft | 132 kts | 348° |
| 2026-04-27 18:41 | 55.02385 | 82.60203 | 374 ft | 110 kts | 349° |
| 2026-04-27 18:41 | 55.02928 | 82.60030 | 374 ft | 54 kts | 352° |
| 2026-04-27 18:42 | 55.03264 | 82.59935 | 374 ft | 38 kts | 349° |
| 2026-04-27 18:42 | 55.03432 | 82.59882 | 374 ft | 36 kts | 349° |
| 2026-04-27 18:42 | 55.03715 | 82.59795 | 374 ft | 25 kts | 349° |
| 2026-04-27 18:42 | 55.03857 | 82.59738 | 374 ft | 37 kts | 351° |
| 2026-04-27 18:43 | 55.04295 | 82.59612 | 374 ft | 68 kts | 349° |
| 2026-04-27 18:43 | 55.04587 | 82.59531 | 374 ft | 23 kts | 354° |
| 2026-04-27 18:43 | 55.04736 | 82.59495 | 374 ft | 13 kts | 358° |
| 2026-04-27 18:43 | 55.04768 | 82.59467 | 374 ft | 8 kts | 174° |
| 2026-04-27 18:44 | 55.04676 | 82.59498 | 374 ft | 23 kts | 168° |
| 2026-04-27 18:44 | 55.04469 | 82.59565 | 374 ft | 30 kts | 171° |
| 2026-04-27 18:44 | 55.04266 | 82.59629 | 374 ft | 28 kts | 168° |
| 2026-04-27 18:44 | 55.03916 | 82.59734 | 374 ft | 82 kts | 170° |
| 2026-04-27 18:45 | 55.03476 | 82.59871 | 374 ft | 45 kts | 170° |
| 2026-04-27 18:45 | 55.03235 | 82.59952 | 374 ft | 30 kts | 167° |
| 2026-04-27 18:45 | 55.02982 | 82.60025 | 374 ft | 34 kts | 171° |
| 2026-04-27 18:45 | 55.02813 | 82.60050 | 374 ft | 23 kts | 190° |
| 2026-04-27 18:46 | 55.02660 | 82.59965 | 374 ft | 22 kts | 209° |
| 2026-04-27 18:46 | 55.02564 | 82.59862 | 374 ft | 11 kts | 213° |
| 2026-04-27 18:46 | 55.02488 | 82.59808 | 374 ft | 12 kts | 179° |
| 2026-04-27 18:46 | 55.02381 | 82.59840 | 374 ft | 23 kts | 170° |
| 2026-04-27 18:47 | 55.02209 | 82.59892 | 374 ft | 24 kts | 170° |
| 2026-04-27 18:47 | 55.02041 | 82.59946 | 374 ft | 24 kts | 170° |
| 2026-04-27 18:47 | 55.01880 | 82.59996 | 374 ft | 23 kts | 171° |
| 2026-04-27 18:47 | 55.01720 | 82.60044 | 374 ft | 22 kts | 171° |
| 2026-04-27 18:48 | 55.01566 | 82.60091 | 374 ft | 22 kts | 171° |
| 2026-04-27 18:48 | 55.01414 | 82.60138 | 374 ft | 22 kts | 170° |
| 2026-04-27 18:48 | 55.01264 | 82.60184 | 374 ft | 21 kts | 170° |
| 2026-04-27 18:48 | 55.01118 | 82.60229 | 374 ft | 17 kts | 170° |
| 2026-04-27 18:49 | 55.00999 | 82.60267 | 374 ft | 17 kts | 170° |
| 2026-04-27 18:49 | 55.00876 | 82.60305 | 374 ft | 18 kts | 167° |
| 2026-04-27 18:49 | 55.00774 | 82.60429 | 374 ft | 18 kts | 132° |
| 2026-04-27 18:49 | 55.00697 | 82.60603 | 374 ft | 18 kts | 126° |
| 2026-04-27 18:50 | 55.00648 | 82.60808 | 374 ft | 18 kts | 94° |
| 2026-04-27 18:50 | 55.00665 | 82.61041 | 374 ft | 20 kts | 80° |
| 2026-04-27 18:50 | 55.00688 | 82.61290 | 374 ft | 20 kts | 81° |
| 2026-04-27 18:50 | 55.00711 | 82.61539 | 374 ft | 20 kts | 81° |
| 2026-04-27 18:51 | 55.00734 | 82.61786 | 374 ft | 20 kts | 81° |
| 2026-04-27 18:51 | 55.00755 | 82.62032 | 374 ft | 20 kts | 81° |
| 2026-04-27 18:51 | 55.00777 | 82.62279 | 374 ft | 20 kts | 81° |
| 2026-04-27 18:51 | 55.00800 | 82.62521 | 374 ft | 20 kts | 81° |
| 2026-04-27 18:52 | 55.00822 | 82.62768 | 374 ft | 20 kts | 80° |
| 2026-04-27 18:52 | 55.00845 | 82.63010 | 374 ft | 20 kts | 83° |
| 2026-04-27 18:52 | 55.00866 | 82.63254 | 374 ft | 20 kts | 81° |
| 2026-04-27 18:53 | 55.00911 | 82.63744 | 374 ft | 20 kts | 81° |
| 2026-04-27 18:53 | 55.00934 | 82.63985 | 374 ft | 20 kts | 81° |
| 2026-04-27 18:53 | 55.00957 | 82.64230 | 374 ft | 20 kts | 83° |
| 2026-04-27 18:53 | 55.00942 | 82.64455 | 374 ft | 14 kts | 103° |
| 2026-04-27 18:54 | 55.00912 | 82.64684 | 374 ft | 22 kts | 103° |
| 2026-04-27 18:54 | 55.00879 | 82.64936 | 374 ft | 20 kts | 103° |
| 2026-04-27 18:54 | 55.00882 | 82.65179 | 374 ft | 20 kts | 86° |
| 2026-04-27 18:54 | 55.00896 | 82.65422 | 374 ft | 20 kts | 79° |
| 2026-04-27 18:55 | 55.00918 | 82.65661 | 374 ft | 20 kts | 81° |
| 2026-04-27 18:55 | 55.00940 | 82.65903 | 374 ft | 20 kts | 82° |
| 2026-04-27 18:55 | 55.00962 | 82.66145 | 374 ft | 20 kts | 78° |
| 2026-04-27 18:55 | 55.01010 | 82.66324 | 374 ft | 15 kts | 51° |
| 2026-04-27 18:56 | 55.01037 | 82.66441 | 374 ft | 0 kts | 73° |
| 2026-04-27 18:56 | 55.01038 | 82.66447 | 374 ft | 0 kts | 73° |
| 2026-04-27 18:58 | 55.01037 | 82.66422 | 374 ft | 2 kts | 116° |
| 2026-04-27 18:58 | 55.01047 | 82.66404 | 374 ft | 2 kts | 162° |
| 2026-04-27 18:59 | 55.01062 | 82.66401 | 374 ft | 2 kts | 173° |
| 2026-04-27 18:59 | 55.01076 | 82.66396 | 374 ft | 1 kts | 171° |
| 2026-04-27 18:59 | 55.01078 | 82.66396 | 374 ft | 0 kts | 172° |